sensor_id;sensor_type;location;lat;lon;timestamp;pressure;altitude;pressure_sealevel;temperature
73734;BMP280;62039;50.000;9.064;2022-10-31T00:01:13;100795.13;;;12.44
73734;BMP280;62039;50.000;9.064;2022-10-31T00:03:40;100791.19;;;12.40
73734;BMP280;62039;50.000;9.064;2022-10-31T00:06:06;100792.97;;;12.39
73734;BMP280;62039;50.000;9.064;2022-10-31T00:08:34;100800.19;;;12.37
73734;BMP280;62039;50.000;9.064;2022-10-31T00:11:01;100804.59;;;12.37
73734;BMP280;62039;50.000;9.064;2022-10-31T00:13:28;100798.38;;;12.38
73734;BMP280;62039;50.000;9.064;2022-10-31T00:15:54;100800.19;;;12.37
73734;BMP280;62039;50.000;9.064;2022-10-31T00:18:21;100801.81;;;12.38
73734;BMP280;62039;50.000;9.064;2022-10-31T00:20:47;100807.22;;;12.37
73734;BMP280;62039;50.000;9.064;2022-10-31T00:23:14;100810.66;;;12.37
73734;BMP280;62039;50.000;9.064;2022-10-31T00:25:41;100808.03;;;12.37
73734;BMP280;62039;50.000;9.064;2022-10-31T00:28:10;100815.06;;;12.37
73734;BMP280;62039;50.000;9.064;2022-10-31T00:30:37;100810.00;;;12.35
73734;BMP280;62039;50.000;9.064;2022-10-31T00:33:04;100818.03;;;12.34
73734;BMP280;62039;50.000;9.064;2022-10-31T00:35:30;100816.38;;;12.33
73734;BMP280;62039;50.000;9.064;2022-10-31T00:37:57;100819.94;;;12.32
73734;BMP280;62039;50.000;9.064;2022-10-31T00:40:23;100821.91;;;12.30
73734;BMP280;62039;50.000;9.064;2022-10-31T00:42:51;100822.88;;;12.29
73734;BMP280;62039;50.000;9.064;2022-10-31T00:45:18;100826.47;;;12.28
73734;BMP280;62039;50.000;9.064;2022-10-31T00:47:45;100817.16;;;12.25
73734;BMP280;62039;50.000;9.064;2022-10-31T00:50:11;100821.72;;;12.23
73734;BMP280;62039;50.000;9.064;2022-10-31T00:52:38;100824.47;;;12.22
73734;BMP280;62039;50.000;9.064;2022-10-31T00:55:05;100822.84;;;12.21
73734;BMP280;62039;50.000;9.064;2022-10-31T00:57:31;100826.63;;;12.18
73734;BMP280;62039;50.000;9.064;2022-10-31T00:59:59;100824.16;;;12.16
73734;BMP280;62039;50.000;9.064;2022-10-31T01:02:26;100828.56;;;12.16
73734;BMP280;62039;50.000;9.064;2022-10-31T01:04:52;100825.28;;;12.14
73734;BMP280;62039;50.000;9.064;2022-10-31T01:07:19;100826.28;;;12.13
73734;BMP280;62039;50.000;9.064;2022-10-31T01:09:45;100825.59;;;12.11
73734;BMP280;62039;50.000;9.064;2022-10-31T01:12:12;100834.44;;;12.10
73734;BMP280;62039;50.000;9.064;2022-10-31T01:14:42;100837.19;;;12.08
73734;BMP280;62039;50.000;9.064;2022-10-31T01:17:10;100834.91;;;12.05
73734;BMP280;62039;50.000;9.064;2022-10-31T01:19:37;100833.28;;;12.04
73734;BMP280;62039;50.000;9.064;2022-10-31T01:22:03;100843.06;;;12.02
73734;BMP280;62039;50.000;9.064;2022-10-31T01:24:30;100837.16;;;12.00
73734;BMP280;62039;50.000;9.064;2022-10-31T01:26:56;100838.16;;;11.99
73734;BMP280;62039;50.000;9.064;2022-10-31T01:29:23;100839.28;;;11.97
73734;BMP280;62039;50.000;9.064;2022-10-31T01:31:49;100835.19;;;11.94
73734;BMP280;62039;50.000;9.064;2022-10-31T01:34:17;100826.69;;;11.92
73734;BMP280;62039;50.000;9.064;2022-10-31T01:36:45;100833.88;;;11.90
73734;BMP280;62039;50.000;9.064;2022-10-31T01:39:13;100834.97;;;11.88
73734;BMP280;62039;50.000;9.064;2022-10-31T01:41:42;100828.13;;;11.87
73734;BMP280;62039;50.000;9.064;2022-10-31T01:47:15;100838.56;;;11.78
73734;BMP280;62039;50.000;9.064;2022-10-31T01:49:47;100833.47;;;11.77
73734;BMP280;62039;50.000;9.064;2022-10-31T01:52:19;100824.94;;;11.75
73734;BMP280;62039;50.000;9.064;2022-10-31T01:54:49;100829.53;;;11.73
73734;BMP280;62039;50.000;9.064;2022-10-31T01:57:18;100827.88;;;11.72
73734;BMP280;62039;50.000;9.064;2022-10-31T01:59:48;100828.03;;;11.70
73734;BMP280;62039;50.000;9.064;2022-10-31T02:02:17;100836.84;;;11.69
73734;BMP280;62039;50.000;9.064;2022-10-31T02:04:46;100834.38;;;11.68
73734;BMP280;62039;50.000;9.064;2022-10-31T02:07:16;100842.41;;;11.66
73734;BMP280;62039;50.000;9.064;2022-10-31T02:09:45;100832.09;;;11.65
73734;BMP280;62039;50.000;9.064;2022-10-31T02:12:12;100836.66;;;11.63
73734;BMP280;62039;50.000;9.064;2022-10-31T02:14:40;100835.00;;;11.62
73734;BMP280;62039;50.000;9.064;2022-10-31T02:17:07;100836.94;;;11.60
73734;BMP280;62039;50.000;9.064;2022-10-31T02:19:39;100835.34;;;11.59
73734;BMP280;62039;50.000;9.064;2022-10-31T02:22:16;100832.03;;;11.57
73734;BMP280;62039;50.000;9.064;2022-10-31T02:24:49;100828.75;;;11.55
73734;BMP280;62039;50.000;9.064;2022-10-31T02:27:33;100820.41;;;11.51
73734;BMP280;62039;50.000;9.064;2022-10-31T02:30:07;100815.31;;;11.50
73734;BMP280;62039;50.000;9.064;2022-10-31T02:32:50;100820.84;;;11.47
73734;BMP280;62039;50.000;9.064;2022-10-31T02:35:28;100814.94;;;11.45
73734;BMP280;62039;50.000;9.064;2022-10-31T02:38:09;100819.50;;;11.43
73734;BMP280;62039;50.000;9.064;2022-10-31T02:40:44;100813.59;;;11.40
73734;BMP280;62039;50.000;9.064;2022-10-31T02:43:19;100813.91;;;11.37
73734;BMP280;62039;50.000;9.064;2022-10-31T02:45:50;100819.28;;;11.36
73734;BMP280;62039;50.000;9.064;2022-10-31T02:48:25;100809.94;;;11.33
73734;BMP280;62039;50.000;9.064;2022-10-31T02:50:56;100809.28;;;11.31
73734;BMP280;62039;50.000;9.064;2022-10-31T02:53:23;100812.06;;;11.30
73734;BMP280;62039;50.000;9.064;2022-10-31T02:56:00;100819.06;;;11.29
73734;BMP280;62039;50.000;9.064;2022-10-31T02:58:31;100816.59;;;11.28
73734;BMP280;62039;50.000;9.064;2022-10-31T03:01:15;100813.34;;;11.26
73734;BMP280;62039;50.000;9.064;2022-10-31T03:03:53;100814.44;;;11.23
73734;BMP280;62039;50.000;9.064;2022-10-31T03:06:25;100816.41;;;11.21
73734;BMP280;62039;50.000;9.064;2022-10-31T03:09:02;100812.31;;;11.19
73734;BMP280;62039;50.000;9.064;2022-10-31T03:11:42;100804.75;;;11.16
73734;BMP280;62039;50.000;9.064;2022-10-31T03:14:12;100806.69;;;11.14
73734;BMP280;62039;50.000;9.064;2022-10-31T03:16:45;100804.25;;;11.12
73734;BMP280;62039;50.000;9.064;2022-10-31T03:19:15;100806.03;;;11.12
73734;BMP280;62039;50.000;9.064;2022-10-31T03:21:44;100811.41;;;11.10
73734;BMP280;62039;50.000;9.064;2022-10-31T03:24:13;100811.72;;;11.07
73734;BMP280;62039;50.000;9.064;2022-10-31T03:26:42;100810.38;;;11.03
73734;BMP280;62039;50.000;9.064;2022-10-31T03:29:13;100814.28;;;10.99
73734;BMP280;62039;50.000;9.064;2022-10-31T03:31:44;100809.34;;;10.96
73734;BMP280;62039;50.000;9.064;2022-10-31T03:34:15;100808.66;;;10.94
73734;BMP280;62039;50.000;9.064;2022-10-31T03:36:44;100808.16;;;10.90
73734;BMP280;62039;50.000;9.064;2022-10-31T03:39:13;100805.00;;;10.87
73734;BMP280;62039;50.000;9.064;2022-10-31T03:41:47;100810.53;;;10.84
73734;BMP280;62039;50.000;9.064;2022-10-31T03:44:16;100811.66;;;10.81
73734;BMP280;62039;50.000;9.064;2022-10-31T03:46:44;100817.03;;;10.80
73734;BMP280;62039;50.000;9.064;2022-10-31T03:49:11;100811.78;;;10.80
73734;BMP280;62039;50.000;9.064;2022-10-31T03:51:45;100811.16;;;10.78
73734;BMP280;62039;50.000;9.064;2022-10-31T03:54:16;100810.31;;;10.77
73734;BMP280;62039;50.000;9.064;2022-10-31T03:56:50;100804.41;;;10.75
73734;BMP280;62039;50.000;9.064;2022-10-31T03:59:20;100804.56;;;10.74
73734;BMP280;62039;50.000;9.064;2022-10-31T04:01:50;100803.09;;;10.71
73734;BMP280;62039;50.000;9.064;2022-10-31T04:04:18;100806.66;;;10.70
73734;BMP280;62039;50.000;9.064;2022-10-31T04:06:48;100809.41;;;10.69
73734;BMP280;62039;50.000;9.064;2022-10-31T04:09:16;100813.00;;;10.68
73734;BMP280;62039;50.000;9.064;2022-10-31T04:11:46;100808.59;;;10.68
73734;BMP280;62039;50.000;9.064;2022-10-31T04:14:14;100803.38;;;10.68
73734;BMP280;62039;50.000;9.064;2022-10-31T04:16:43;100813.81;;;10.68
73734;BMP280;62039;50.000;9.064;2022-10-31T04:19:10;100806.81;;;10.69
73734;BMP280;62039;50.000;9.064;2022-10-31T04:21:36;100805.03;;;10.69
73734;BMP280;62039;50.000;9.064;2022-10-31T04:24:05;100798.97;;;10.69
73734;BMP280;62039;50.000;9.064;2022-10-31T04:26:32;100797.47;;;10.66
73734;BMP280;62039;50.000;9.064;2022-10-31T04:28:58;100797.47;;;10.66
73734;BMP280;62039;50.000;9.064;2022-10-31T04:31:25;100794.34;;;10.63
73734;BMP280;62039;50.000;9.064;2022-10-31T04:33:51;100794.63;;;10.59
73734;BMP280;62039;50.000;9.064;2022-10-31T04:36:18;100787.09;;;10.56
73734;BMP280;62039;50.000;9.064;2022-10-31T04:38:44;100792.44;;;10.55
73734;BMP280;62039;50.000;9.064;2022-10-31T04:41:12;100788.31;;;10.52
73734;BMP280;62039;50.000;9.064;2022-10-31T04:43:39;100783.25;;;10.51
73734;BMP280;62039;50.000;9.064;2022-10-31T04:46:05;100779.84;;;10.50
73734;BMP280;62039;50.000;9.064;2022-10-31T04:48:32;100787.53;;;10.52
73734;BMP280;62039;50.000;9.064;2022-10-31T04:50:59;100780.47;;;10.52
73734;BMP280;62039;50.000;9.064;2022-10-31T04:53:25;100789.13;;;10.53
73734;BMP280;62039;50.000;9.064;2022-10-31T04:55:52;100780.34;;;10.54
73734;BMP280;62039;50.000;9.064;2022-10-31T04:58:20;100777.63;;;10.55
73734;BMP280;62039;50.000;9.064;2022-10-31T05:00:46;100784.75;;;10.53
73734;BMP280;62039;50.000;9.064;2022-10-31T05:03:13;100783.78;;;10.54
73734;BMP280;62039;50.000;9.064;2022-10-31T05:05:41;100781.88;;;10.56
73734;BMP280;62039;50.000;9.064;2022-10-31T05:08:07;100784.19;;;10.59
73734;BMP280;62039;50.000;9.064;2022-10-31T05:10:34;100785.00;;;10.60
73734;BMP280;62039;50.000;9.064;2022-10-31T05:13:02;100787.47;;;10.62
73734;BMP280;62039;50.000;9.064;2022-10-31T05:15:31;100783.88;;;10.63
73734;BMP280;62039;50.000;9.064;2022-10-31T05:17:58;100788.16;;;10.64
73734;BMP280;62039;50.000;9.064;2022-10-31T05:20:27;100790.75;;;10.64
73734;BMP280;62039;50.000;9.064;2022-10-31T05:22:55;100794.03;;;10.66
73734;BMP280;62039;50.000;9.064;2022-10-31T05:25:23;100790.44;;;10.67
73734;BMP280;62039;50.000;9.064;2022-10-31T05:27:51;100798.47;;;10.65
73734;BMP280;62039;50.000;9.064;2022-10-31T05:30:20;100800.91;;;10.67
73734;BMP280;62039;50.000;9.064;2022-10-31T05:32:49;100795.66;;;10.67
73734;BMP280;62039;50.000;9.064;2022-10-31T05:35:18;100787.84;;;10.67
73734;BMP280;62039;50.000;9.064;2022-10-31T05:37:44;100787.84;;;10.67
73734;BMP280;62039;50.000;9.064;2022-10-31T05:40:12;100787.19;;;10.65
73734;BMP280;62039;50.000;9.064;2022-10-31T05:42:40;100784.56;;;10.65
73734;BMP280;62039;50.000;9.064;2022-10-31T05:45:07;100790.63;;;10.65
73734;BMP280;62039;50.000;9.064;2022-10-31T05:47:34;100792.56;;;10.63
73734;BMP280;62039;50.000;9.064;2022-10-31T05:50:03;100788.16;;;10.64
73734;BMP280;62039;50.000;9.064;2022-10-31T05:52:29;100784.72;;;10.63
73734;BMP280;62039;50.000;9.064;2022-10-31T05:54:56;100789.94;;;10.63
73734;BMP280;62039;50.000;9.064;2022-10-31T05:57:22;100786.50;;;10.63
73734;BMP280;62039;50.000;9.064;2022-10-31T05:59:49;100792.56;;;10.63
73734;BMP280;62039;50.000;9.064;2022-10-31T06:02:20;100800.38;;;10.63
73734;BMP280;62039;50.000;9.064;2022-10-31T06:04:47;100794.34;;;10.63
73734;BMP280;62039;50.000;9.064;2022-10-31T06:07:15;100794.34;;;10.63
73734;BMP280;62039;50.000;9.064;2022-10-31T06:09:42;100787.47;;;10.62
73734;BMP280;62039;50.000;9.064;2022-10-31T06:12:08;100787.47;;;10.62
73734;BMP280;62039;50.000;9.064;2022-10-31T06:14:35;100793.66;;;10.60
73734;BMP280;62039;50.000;9.064;2022-10-31T06:17:01;100798.88;;;10.60
73734;BMP280;62039;50.000;9.064;2022-10-31T06:19:28;100798.06;;;10.60
73734;BMP280;62039;50.000;9.064;2022-10-31T06:21:54;100791.06;;;10.60
73734;BMP280;62039;50.000;9.064;2022-10-31T06:24:22;100794.63;;;10.59
73734;BMP280;62039;50.000;9.064;2022-10-31T06:26:48;100796.41;;;10.59
73734;BMP280;62039;50.000;9.064;2022-10-31T06:29:15;100803.47;;;10.58
73734;BMP280;62039;50.000;9.064;2022-10-31T06:31:41;100797.41;;;10.58
73734;BMP280;62039;50.000;9.064;2022-10-31T06:34:08;100793.28;;;10.55
73734;BMP280;62039;50.000;9.064;2022-10-31T06:36:35;100800.16;;;10.56
73734;BMP280;62039;50.000;9.064;2022-10-31T06:39:01;100795.91;;;10.55
73734;BMP280;62039;50.000;9.064;2022-10-31T06:41:29;100802.06;;;10.54
73734;BMP280;62039;50.000;9.064;2022-10-31T06:43:56;100800.41;;;10.53
73734;BMP280;62039;50.000;9.064;2022-10-31T06:46:22;100804.00;;;10.52
73734;BMP280;62039;50.000;9.064;2022-10-31T06:48:49;100808.44;;;10.52
73734;BMP280;62039;50.000;9.064;2022-10-31T06:51:15;100815.25;;;10.53
73734;BMP280;62039;50.000;9.064;2022-10-31T06:53:42;100812.66;;;10.53
73734;BMP280;62039;50.000;9.064;2022-10-31T06:56:08;100807.44;;;10.53
73734;BMP280;62039;50.000;9.064;2022-10-31T06:58:36;100810.72;;;10.55
73734;BMP280;62039;50.000;9.064;2022-10-31T07:01:02;100821.06;;;10.56
73734;BMP280;62039;50.000;9.064;2022-10-31T07:03:29;100820.94;;;10.58
73734;BMP280;62039;50.000;9.064;2022-10-31T07:05:56;100818.81;;;10.62
73734;BMP280;62039;50.000;9.064;2022-10-31T07:08:23;100819.66;;;10.62
73734;BMP280;62039;50.000;9.064;2022-10-31T07:10:52;100816.88;;;10.64
73734;BMP280;62039;50.000;9.064;2022-10-31T07:13:18;100815.94;;;10.65
73734;BMP280;62039;50.000;9.064;2022-10-31T07:15:46;100824.41;;;10.67
73734;BMP280;62039;50.000;9.064;2022-10-31T07:18:13;100819.88;;;10.69
73734;BMP280;62039;50.000;9.064;2022-10-31T07:20:39;100821.38;;;10.71
73734;BMP280;62039;50.000;9.064;2022-10-31T07:23:07;100818.59;;;10.73
73734;BMP280;62039;50.000;9.064;2022-10-31T07:25:33;100823.69;;;10.74
73734;BMP280;62039;50.000;9.064;2022-10-31T07:28:00;100819.00;;;10.78
73734;BMP280;62039;50.000;9.064;2022-10-31T07:30:27;100827.19;;;10.83
73734;BMP280;62039;50.000;9.064;2022-10-31T07:32:55;100824.13;;;10.87
73734;BMP280;62039;50.000;9.064;2022-10-31T07:35:24;100826.00;;;10.95
73734;BMP280;62039;50.000;9.064;2022-10-31T07:37:51;100816.91;;;10.99
73734;BMP280;62039;50.000;9.064;2022-10-31T07:40:18;100821.81;;;11.02
73734;BMP280;62039;50.000;9.064;2022-10-31T07:42:47;100817.13;;;11.06
73734;BMP280;62039;50.000;9.064;2022-10-31T07:45:16;100818.44;;;11.10
73734;BMP280;62039;50.000;9.064;2022-10-31T07:47:44;100813.41;;;11.16
73734;BMP280;62039;50.000;9.064;2022-10-31T07:50:13;100824.59;;;11.26
73734;BMP280;62039;50.000;9.064;2022-10-31T07:52:40;100815.16;;;11.33
73734;BMP280;62039;50.000;9.064;2022-10-31T07:55:07;100810.13;;;11.40
73734;BMP280;62039;50.000;9.064;2022-10-31T07:57:34;100809.25;;;11.49
73734;BMP280;62039;50.000;9.064;2022-10-31T08:00:00;100813.72;;;11.57
73734;BMP280;62039;50.000;9.064;2022-10-31T08:02:27;100815.56;;;11.64
73734;BMP280;62039;50.000;9.064;2022-10-31T08:04:53;100813.16;;;11.71
73734;BMP280;62039;50.000;9.064;2022-10-31T08:07:27;100816.78;;;11.78
73734;BMP280;62039;50.000;9.064;2022-10-31T08:09:54;100812.72;;;11.84
73734;BMP280;62039;50.000;9.064;2022-10-31T08:12:21;100808.34;;;11.92
73734;BMP280;62039;50.000;9.064;2022-10-31T08:14:47;100811.97;;;11.99
73734;BMP280;62039;50.000;9.064;2022-10-31T08:17:14;100807.75;;;12.06
73734;BMP280;62039;50.000;9.064;2022-10-31T08:19:40;100795.50;;;12.15
73734;BMP280;62039;50.000;9.064;2022-10-31T08:22:07;100797.31;;;12.23
73734;BMP280;62039;50.000;9.064;2022-10-31T08:24:35;100799.97;;;12.31
73734;BMP280;62039;50.000;9.064;2022-10-31T08:27:01;100799.34;;;12.37
73734;BMP280;62039;50.000;9.064;2022-10-31T08:29:28;100791.81;;;12.42
73734;BMP280;62039;50.000;9.064;2022-10-31T08:31:54;100792.34;;;12.45
73734;BMP280;62039;50.000;9.064;2022-10-31T08:34:21;100790.19;;;12.49
73734;BMP280;62039;50.000;9.064;2022-10-31T08:36:47;100782.69;;;12.54
73734;BMP280;62039;50.000;9.064;2022-10-31T08:39:14;100779.44;;;12.60
73734;BMP280;62039;50.000;9.064;2022-10-31T08:41:42;100771.88;;;12.65
73734;BMP280;62039;50.000;9.064;2022-10-31T08:44:08;100776.47;;;12.71
73734;BMP280;62039;50.000;9.064;2022-10-31T08:46:35;100776.63;;;12.78
73734;BMP280;62039;50.000;9.064;2022-10-31T08:49:01;100783.69;;;12.85
73734;BMP280;62039;50.000;9.064;2022-10-31T08:51:28;100779.75;;;12.89
73734;BMP280;62039;50.000;9.064;2022-10-31T08:53:54;100774.50;;;12.98
73734;BMP280;62039;50.000;9.064;2022-10-31T08:56:21;100774.66;;;13.04
73734;BMP280;62039;50.000;9.064;2022-10-31T08:58:49;100758.94;;;13.12
73734;BMP280;62039;50.000;9.064;2022-10-31T09:01:16;100767.44;;;13.22
73734;BMP280;62039;50.000;9.064;2022-10-31T09:03:42;100756.13;;;13.30
73734;BMP280;62039;50.000;9.064;2022-10-31T09:06:09;100749.88;;;13.39
73734;BMP280;62039;50.000;9.064;2022-10-31T09:08:36;100752.50;;;13.47
73734;BMP280;62039;50.000;9.064;2022-10-31T09:11:03;100749.66;;;13.57
73734;BMP280;62039;50.000;9.064;2022-10-31T09:13:30;100750.44;;;13.65
73734;BMP280;62039;50.000;9.064;2022-10-31T09:15:58;100749.44;;;13.74
73734;BMP280;62039;50.000;9.064;2022-10-31T09:18:25;100744.78;;;13.85
73734;BMP280;62039;50.000;9.064;2022-10-31T09:20:51;100737.38;;;13.96
73734;BMP280;62039;50.000;9.064;2022-10-31T09:23:20;100742.06;;;14.09
73734;BMP280;62039;50.000;9.064;2022-10-31T09:25:48;100742.34;;;14.22
73734;BMP280;62039;50.000;9.064;2022-10-31T09:28:17;100733.66;;;14.36
73734;BMP280;62039;50.000;9.064;2022-10-31T09:30:46;100733.09;;;14.49
73734;BMP280;62039;50.000;9.064;2022-10-31T09:33:14;100732.50;;;14.62
73734;BMP280;62039;50.000;9.064;2022-10-31T09:35:41;100737.19;;;14.74
73734;BMP280;62039;50.000;9.064;2022-10-31T09:38:09;100727.72;;;14.88
73734;BMP280;62039;50.000;9.064;2022-10-31T09:40:38;100730.53;;;15.01
73734;BMP280;62039;50.000;9.064;2022-10-31T09:43:14;100735.00;;;15.15
73734;BMP280;62039;50.000;9.064;2022-10-31T09:45:49;100727.47;;;15.27
73734;BMP280;62039;50.000;9.064;2022-10-31T09:48:31;100723.22;;;15.41
73734;BMP280;62039;50.000;9.064;2022-10-31T09:51:01;100719.16;;;15.53
73734;BMP280;62039;50.000;9.064;2022-10-31T09:53:32;100720.31;;;15.65
73734;BMP280;62039;50.000;9.064;2022-10-31T09:56:01;100718.84;;;15.77
73734;BMP280;62039;50.000;9.064;2022-10-31T09:58:29;100717.56;;;15.88
73734;BMP280;62039;50.000;9.064;2022-10-31T10:01:01;100718.88;;;15.98
73734;BMP280;62039;50.000;9.064;2022-10-31T10:03:34;100713.13;;;16.09
73734;BMP280;62039;50.000;9.064;2022-10-31T10:06:06;100705.75;;;16.20
73734;BMP280;62039;50.000;9.064;2022-10-31T10:08:35;100710.72;;;16.29
73734;BMP280;62039;50.000;9.064;2022-10-31T10:13:42;100711.91;;;16.48
73734;BMP280;62039;50.000;9.064;2022-10-31T10:16:19;100711.78;;;16.56
73734;BMP280;62039;50.000;9.064;2022-10-31T10:19:02;100710.00;;;16.63
73734;BMP280;62039;50.000;9.064;2022-10-31T10:21:38;100703.97;;;16.69
73734;BMP280;62039;50.000;9.064;2022-10-31T10:24:17;100705.84;;;16.75
73734;BMP280;62039;50.000;9.064;2022-10-31T10:26:52;100701.63;;;16.81
73734;BMP280;62039;50.000;9.064;2022-10-31T10:29:31;100701.66;;;16.87
73734;BMP280;62039;50.000;9.064;2022-10-31T10:32:01;100702.13;;;16.91
73734;BMP280;62039;50.000;9.064;2022-10-31T10:34:36;100702.19;;;16.98
73734;BMP280;62039;50.000;9.064;2022-10-31T10:37:05;100696.13;;;17.04
73734;BMP280;62039;50.000;9.064;2022-10-31T10:39:38;100698.63;;;17.12
73734;BMP280;62039;50.000;9.064;2022-10-31T10:42:10;100691.97;;;17.22
73734;BMP280;62039;50.000;9.064;2022-10-31T10:44:38;100684.91;;;17.30
73734;BMP280;62039;50.000;9.064;2022-10-31T10:47:06;100685.56;;;17.38
73734;BMP280;62039;50.000;9.064;2022-10-31T10:49:37;100678.88;;;17.49
73734;BMP280;62039;50.000;9.064;2022-10-31T10:52:13;100666.34;;;17.57
73734;BMP280;62039;50.000;9.064;2022-10-31T10:55:09;100661.50;;;17.68
73734;BMP280;62039;50.000;9.064;2022-10-31T10:57:44;100666.41;;;17.77
73734;BMP280;62039;50.000;9.064;2022-10-31T11:00:19;100659.91;;;17.86
73734;BMP280;62039;50.000;9.064;2022-10-31T11:02:46;100656.28;;;17.94
73734;BMP280;62039;50.000;9.064;2022-10-31T11:05:22;100650.81;;;18.02
73734;BMP280;62039;50.000;9.064;2022-10-31T11:07:49;100647.97;;;18.10
73734;BMP280;62039;50.000;9.064;2022-10-31T11:10:16;100642.69;;;18.17
73734;BMP280;62039;50.000;9.064;2022-10-31T11:12:44;100641.72;;;18.24
73734;BMP280;62039;50.000;9.064;2022-10-31T11:15:20;100640.72;;;18.32
73734;BMP280;62039;50.000;9.064;2022-10-31T11:17:49;100634.59;;;18.38
73734;BMP280;62039;50.000;9.064;2022-10-31T11:20:38;100639.06;;;18.44
73734;BMP280;62039;50.000;9.064;2022-10-31T11:23:18;100631.94;;;18.51
73734;BMP280;62039;50.000;9.064;2022-10-31T11:25:50;100628.69;;;18.56
73734;BMP280;62039;50.000;9.064;2022-10-31T11:28:17;100627.03;;;18.61
73734;BMP280;62039;50.000;9.064;2022-10-31T11:30:46;100624.59;;;18.66
73734;BMP280;62039;50.000;9.064;2022-10-31T11:33:19;100615.84;;;18.72
73734;BMP280;62039;50.000;9.064;2022-10-31T11:35:49;100606.25;;;18.78
73734;BMP280;62039;50.000;9.064;2022-10-31T11:38:24;100608.06;;;18.84
73734;BMP280;62039;50.000;9.064;2022-10-31T11:40:54;100607.28;;;18.90
73734;BMP280;62039;50.000;9.064;2022-10-31T11:43:22;100599.50;;;18.95
73734;BMP280;62039;50.000;9.064;2022-10-31T11:45:49;100601.75;;;18.98
73734;BMP280;62039;50.000;9.064;2022-10-31T11:48:17;100597.25;;;19.05
73734;BMP280;62039;50.000;9.064;2022-10-31T11:50:50;100588.66;;;19.10
73734;BMP280;62039;50.000;9.064;2022-10-31T11:53:20;100579.31;;;19.14
73734;BMP280;62039;50.000;9.064;2022-10-31T11:55:47;100577.03;;;19.17
73734;BMP280;62039;50.000;9.064;2022-10-31T11:58:26;100567.06;;;19.19
73734;BMP280;62039;50.000;9.064;2022-10-31T12:00:55;100566.03;;;19.20
73734;BMP280;62039;50.000;9.064;2022-10-31T12:03:37;100561.31;;;19.23
73734;BMP280;62039;50.000;9.064;2022-10-31T12:06:11;100559.47;;;19.23
73734;BMP280;62039;50.000;9.064;2022-10-31T12:08:40;100555.19;;;19.22
73734;BMP280;62039;50.000;9.064;2022-10-31T12:11:12;100549.91;;;19.22
73734;BMP280;62039;50.000;9.064;2022-10-31T12:13:51;100554.81;;;19.18
73734;BMP280;62039;50.000;9.064;2022-10-31T12:16:32;100553.03;;;19.12
73734;BMP280;62039;50.000;9.064;2022-10-31T12:19:04;100555.50;;;19.07
73734;BMP280;62039;50.000;9.064;2022-10-31T12:21:44;100553.47;;;19.03
73734;BMP280;62039;50.000;9.064;2022-10-31T12:24:22;100546.97;;;18.99
73734;BMP280;62039;50.000;9.064;2022-10-31T12:26:54;100552.88;;;18.94
73734;BMP280;62039;50.000;9.064;2022-10-31T12:29:37;100548.41;;;18.88
73734;BMP280;62039;50.000;9.064;2022-10-31T12:32:22;100542.31;;;18.81
73734;BMP280;62039;50.000;9.064;2022-10-31T12:35:03;100535.81;;;18.77
73734;BMP280;62039;50.000;9.064;2022-10-31T12:37:45;100537.84;;;18.75
73734;BMP280;62039;50.000;9.064;2022-10-31T12:40:40;100536.66;;;18.71
73734;BMP280;62039;50.000;9.064;2022-10-31T12:43:34;100528.72;;;18.71
73734;BMP280;62039;50.000;9.064;2022-10-31T12:46:03;100519.56;;;18.73
73734;BMP280;62039;50.000;9.064;2022-10-31T12:48:42;100518.31;;;18.76
73734;BMP280;62039;50.000;9.064;2022-10-31T12:51:18;100509.16;;;18.78
73734;BMP280;62039;50.000;9.064;2022-10-31T12:53:57;100505.25;;;18.81
73734;BMP280;62039;50.000;9.064;2022-10-31T12:56:39;100507.31;;;18.86
73734;BMP280;62039;50.000;9.064;2022-10-31T12:59:10;100504.88;;;18.91
73734;BMP280;62039;50.000;9.064;2022-10-31T13:01:45;100501.56;;;18.95
73734;BMP280;62039;50.000;9.064;2022-10-31T13:04:17;100495.66;;;19.00
73734;BMP280;62039;50.000;9.064;2022-10-31T13:06:48;100486.06;;;19.05
73734;BMP280;62039;50.000;9.064;2022-10-31T13:09:18;100491.72;;;19.09
73734;BMP280;62039;50.000;9.064;2022-10-31T13:11:48;100486.84;;;19.12
73734;BMP280;62039;50.000;9.064;2022-10-31T13:14:23;100484.34;;;19.17
73734;BMP280;62039;50.000;9.064;2022-10-31T13:16:51;100480.69;;;19.18
73734;BMP280;62039;50.000;9.064;2022-10-31T13:19:21;100478.03;;;19.18
73734;BMP280;62039;50.000;9.064;2022-10-31T13:21:55;100470.09;;;19.18
73734;BMP280;62039;50.000;9.064;2022-10-31T13:24:28;100472.75;;;19.18
73734;BMP280;62039;50.000;9.064;2022-10-31T13:26:58;100464.81;;;19.18
73734;BMP280;62039;50.000;9.064;2022-10-31T13:29:29;100468.06;;;19.20
73734;BMP280;62039;50.000;9.064;2022-10-31T13:31:59;100467.00;;;19.21
73734;BMP280;62039;50.000;9.064;2022-10-31T13:34:29;100452.75;;;19.23
73734;BMP280;62039;50.000;9.064;2022-10-31T13:37:05;100459.88;;;19.22
73734;BMP280;62039;50.000;9.064;2022-10-31T13:39:45;100461.13;;;19.19
73734;BMP280;62039;50.000;9.064;2022-10-31T13:42:17;100452.59;;;19.17
73734;BMP280;62039;50.000;9.064;2022-10-31T13:44:45;100453.41;;;19.18
73734;BMP280;62039;50.000;9.064;2022-10-31T13:47:24;100450.13;;;19.16
73734;BMP280;62039;50.000;9.064;2022-10-31T13:49:51;100446.09;;;19.13
73734;BMP280;62039;50.000;9.064;2022-10-31T13:52:29;100439.19;;;19.12
73734;BMP280;62039;50.000;9.064;2022-10-31T13:54:57;100438.38;;;19.12
73734;BMP280;62039;50.000;9.064;2022-10-31T13:57:30;100435.94;;;19.10
73734;BMP280;62039;50.000;9.064;2022-10-31T14:00:02;100430.03;;;19.08
73734;BMP280;62039;50.000;9.064;2022-10-31T14:02:31;100420.50;;;19.07
73734;BMP280;62039;50.000;9.064;2022-10-31T14:05:02;100421.50;;;19.06
73734;BMP280;62039;50.000;9.064;2022-10-31T14:07:30;100419.06;;;19.05
73734;BMP280;62039;50.000;9.064;2022-10-31T14:10:02;100416.63;;;19.03
73734;BMP280;62039;50.000;9.064;2022-10-31T14:12:31;100416.03;;;19.01
73734;BMP280;62039;50.000;9.064;2022-10-31T14:15:03;100412.78;;;18.99
73734;BMP280;62039;50.000;9.064;2022-10-31T14:17:47;100416.47;;;18.98